createdAt,value
2018-04-13T00:01:00.029Z,0.00
2018-04-13T00:02:00.067Z,0.00
2018-04-13T00:03:00.105Z,0.00
2018-04-13T00:04:00.142Z,0.00
2018-04-13T00:05:00.231Z,0.00
2018-04-13T00:06:00.225Z,0.00
2018-04-13T00:07:00.255Z,0.00
2018-04-13T00:08:00.301Z,0.00
2018-04-13T00:09:00.335Z,0.00
2018-04-13T00:10:00.367Z,0.00
2018-04-13T00:11:00.413Z,0.00
2018-04-13T00:12:00.443Z,0.00
2018-04-13T00:13:00.480Z,0.00
2018-04-13T00:14:00.523Z,0.00
2018-04-13T00:15:00.555Z,0.00
2018-04-13T00:16:00.594Z,0.00
2018-04-13T00:17:00.630Z,0.00
2018-04-13T00:18:00.669Z,0.00
2018-04-13T00:19:00.706Z,0.00
2018-04-13T00:20:00.744Z,0.00
2018-04-13T00:21:00.790Z,0.00
2018-04-13T00:22:00.822Z,0.00
2018-04-13T00:23:00.861Z,0.00
2018-04-13T00:24:00.901Z,0.00
2018-04-13T00:25:00.933Z,0.00
2018-04-13T00:26:00.972Z,0.00
2018-04-13T00:27:01.008Z,0.00
2018-04-13T00:28:01.045Z,0.00
2018-04-13T00:29:01.086Z,0.00
2018-04-13T00:30:01.121Z,0.00
2018-04-13T00:31:01.159Z,0.00
2018-04-13T00:32:01.212Z,0.00
2018-04-13T00:33:01.234Z,0.00
2018-04-13T00:34:01.269Z,0.00
2018-04-13T00:35:01.308Z,0.00
2018-04-13T00:36:01.346Z,0.00
2018-04-13T00:37:01.384Z,0.00
2018-04-13T00:38:01.420Z,0.00
2018-04-13T00:39:01.460Z,0.00
2018-04-13T00:40:01.498Z,0.00
2018-04-13T00:41:01.535Z,0.00
2018-04-13T00:42:01.570Z,0.00
2018-04-13T00:43:01.606Z,0.00
2018-04-13T00:44:01.653Z,0.00
2018-04-13T00:45:01.683Z,0.00
2018-04-13T00:46:01.721Z,0.00
2018-04-13T00:47:01.757Z,0.00
2018-04-13T00:48:01.800Z,0.00
2018-04-13T00:49:01.833Z,0.00
2018-04-13T00:50:01.871Z,0.00
2018-04-13T00:51:01.907Z,0.00
2018-04-13T00:52:01.950Z,0.00
2018-04-13T00:53:01.985Z,0.00
2018-04-13T00:54:02.022Z,0.00
2018-04-13T00:55:02.064Z,0.00
2018-04-13T00:56:02.096Z,0.00
2018-04-13T00:57:02.132Z,0.00
2018-04-13T00:58:02.169Z,0.00
2018-04-13T00:59:02.215Z,0.00
2018-04-13T01:00:02.255Z,0.00
2018-04-13T01:01:02.282Z,0.00
2018-04-13T01:02:02.321Z,0.00
2018-04-13T01:03:02.356Z,0.00
2018-04-13T01:04:02.395Z,0.00
2018-04-13T01:05:02.432Z,0.00
2018-04-13T01:06:02.468Z,0.00
2018-04-13T01:07:02.507Z,0.00
2018-04-13T01:08:02.543Z,0.00
2018-04-13T01:09:02.581Z,0.00
2018-04-13T01:10:02.618Z,0.00
2018-04-13T01:11:02.655Z,0.00
2018-04-13T01:12:02.693Z,0.00
2018-04-13T01:13:02.737Z,0.00
2018-04-13T01:14:02.769Z,0.00
2018-04-13T01:15:02.805Z,0.00
2018-04-13T01:16:02.843Z,0.00
2018-04-13T01:17:02.881Z,0.00
2018-04-13T01:18:02.917Z,0.00
2018-04-13T01:19:02.954Z,0.00
2018-04-13T01:20:02.992Z,0.00
2018-04-13T01:21:03.031Z,0.00
2018-04-13T01:22:03.075Z,0.00
2018-04-13T01:23:03.109Z,0.00
2018-04-13T01:24:03.143Z,0.00
2018-04-13T01:25:03.188Z,0.00
2018-04-13T01:26:03.217Z,0.00
2018-04-13T01:27:03.263Z,0.00
2018-04-13T01:28:03.292Z,0.00
2018-04-13T01:29:03.331Z,0.00
2018-04-13T01:30:03.374Z,0.00
2018-04-13T01:31:03.409Z,0.00
2018-04-13T01:32:03.443Z,0.00
2018-04-13T01:33:03.481Z,0.00
2018-04-13T01:34:03.518Z,0.00
2018-04-13T01:35:03.564Z,0.00
2018-04-13T01:36:03.593Z,0.00
2018-04-13T01:37:03.631Z,0.00
2018-04-13T01:38:03.669Z,0.00
2018-04-13T01:39:03.707Z,0.00
2018-04-13T01:40:03.751Z,0.00
2018-04-13T01:41:03.789Z,0.00
2018-04-13T01:42:03.818Z,0.00
2018-04-13T01:43:03.855Z,0.00
2018-04-13T01:44:03.913Z,0.00
2018-04-13T01:45:03.930Z,0.00
2018-04-13T01:46:03.968Z,0.00
2018-04-13T01:47:04.007Z,0.00
2018-04-13T01:48:04.043Z,0.00
2018-04-13T01:49:04.080Z,0.00
2018-04-13T01:50:04.117Z,0.00
2018-04-13T01:51:04.155Z,0.00
2018-04-13T01:52:04.192Z,0.00
2018-04-13T01:53:04.233Z,0.00
2018-04-13T01:54:04.276Z,0.00
2018-04-13T01:55:04.312Z,0.00
2018-04-13T01:56:04.342Z,0.00
2018-04-13T01:57:04.381Z,0.00
2018-04-13T01:58:04.417Z,0.00
2018-04-13T01:59:04.456Z,0.00
2018-04-13T02:00:04.493Z,0.00
2018-04-13T02:01:04.531Z,0.00
2018-04-13T02:02:04.568Z,0.00
2018-04-13T02:03:04.605Z,0.00
2018-04-13T02:04:04.646Z,0.00
2018-04-13T02:05:04.681Z,0.00
2018-04-13T02:06:04.723Z,0.00
2018-04-13T02:07:04.756Z,0.00
2018-04-13T02:08:04.794Z,0.00
2018-04-13T02:09:04.833Z,0.00
2018-04-13T02:10:04.867Z,0.00
2018-04-13T02:11:04.906Z,0.00
2018-04-13T02:12:04.941Z,0.00
2018-04-13T02:13:04.981Z,0.00
2018-04-13T02:14:05.017Z,0.00
2018-04-13T02:15:05.052Z,0.00
2018-04-13T02:16:05.092Z,0.00
2018-04-13T02:17:05.127Z,0.00
2018-04-13T02:18:05.164Z,0.00
2018-04-13T02:19:05.210Z,0.00
2018-04-13T02:20:05.248Z,0.00
2018-04-13T02:21:05.277Z,0.00
2018-04-13T02:22:05.316Z,0.00
2018-04-13T02:23:05.352Z,0.00
2018-04-13T02:24:05.391Z,0.00
2018-04-13T02:25:05.426Z,0.00
2018-04-13T02:26:05.465Z,0.00
2018-04-13T02:27:05.503Z,0.00
2018-04-13T02:28:05.540Z,0.00
2018-04-13T02:29:05.576Z,0.00
2018-04-13T02:30:05.613Z,0.00
2018-04-13T02:31:05.652Z,0.00
2018-04-13T02:32:05.694Z,0.00
2018-04-13T02:33:05.725Z,0.00
2018-04-13T02:34:05.771Z,0.00
2018-04-13T02:35:05.806Z,0.00
2018-04-13T02:36:05.843Z,0.00
2018-04-13T02:37:05.878Z,0.00
2018-04-13T02:38:05.912Z,0.00
2018-04-13T02:39:05.957Z,0.00
2018-04-13T02:40:05.987Z,0.00
2018-04-13T02:41:06.025Z,0.00
2018-04-13T02:42:06.066Z,0.00
2018-04-13T02:43:06.100Z,0.00
2018-04-13T02:44:06.136Z,0.00
2018-04-13T02:45:06.173Z,0.00
2018-04-13T02:46:06.211Z,0.00
2018-04-13T02:47:06.247Z,0.00
2018-04-13T02:48:06.296Z,0.00
2018-04-13T02:49:06.324Z,0.00
2018-04-13T02:50:06.358Z,0.00
2018-04-13T02:51:06.396Z,0.00
2018-04-13T02:52:06.433Z,0.00
2018-04-13T02:53:06.469Z,0.00
2018-04-13T02:54:06.513Z,0.00
2018-04-13T02:55:06.544Z,0.00
2018-04-13T02:56:06.581Z,0.00
2018-04-13T02:57:06.617Z,0.00
2018-04-13T02:58:06.655Z,0.00
2018-04-13T02:59:06.692Z,0.00
2018-04-13T03:00:06.736Z,0.00
2018-04-13T03:01:06.767Z,0.00
2018-04-13T03:02:06.804Z,0.00
2018-04-13T03:03:06.840Z,0.00
2018-04-13T03:04:06.876Z,0.00
2018-04-13T03:05:06.913Z,0.00
2018-04-13T03:06:06.951Z,0.00
2018-04-13T03:07:06.987Z,0.00
2018-04-13T03:08:07.024Z,0.00
2018-04-13T03:09:07.062Z,0.00
2018-04-13T03:10:07.101Z,0.00
2018-04-13T03:11:07.137Z,0.00
2018-04-13T03:12:07.176Z,0.00
2018-04-13T03:13:07.213Z,0.00
2018-04-13T03:14:07.247Z,0.00
2018-04-13T03:15:07.284Z,0.00
2018-04-13T03:16:07.322Z,0.00
2018-04-13T03:17:07.358Z,0.00
2018-04-13T03:18:07.400Z,0.00
2018-04-13T03:19:07.433Z,0.00
2018-04-13T03:20:07.469Z,0.00
2018-04-13T03:21:07.505Z,0.00
2018-04-13T03:22:07.542Z,0.00
2018-04-13T03:23:07.580Z,0.00
2018-04-13T03:24:07.615Z,0.00
2018-04-13T03:25:07.652Z,0.00
2018-04-13T03:26:07.691Z,0.00
2018-04-13T03:27:07.728Z,0.00
2018-04-13T03:28:07.763Z,0.00
2018-04-13T03:29:07.803Z,0.00
2018-04-13T03:30:07.837Z,0.00
2018-04-13T03:31:07.873Z,0.00
2018-04-13T03:32:07.909Z,0.00
2018-04-13T03:33:07.954Z,0.00
2018-04-13T03:34:07.984Z,0.00
2018-04-13T03:35:08.020Z,0.00
2018-04-13T03:36:08.057Z,0.00
2018-04-13T03:37:08.094Z,0.00
2018-04-13T03:38:08.130Z,0.00
2018-04-13T03:39:08.166Z,0.00
2018-04-13T03:40:08.203Z,0.00
2018-04-13T03:41:08.246Z,0.00
2018-04-13T03:42:08.276Z,0.00
2018-04-13T03:43:08.315Z,0.00
2018-04-13T03:44:08.350Z,0.00
2018-04-13T03:45:08.386Z,0.00
2018-04-13T03:46:08.423Z,0.00
2018-04-13T03:47:08.501Z,0.00
2018-04-13T03:48:08.495Z,0.00
2018-04-13T03:49:08.533Z,0.00
2018-04-13T03:50:08.572Z,0.00
2018-04-13T03:51:08.615Z,0.00
2018-04-13T03:52:08.641Z,0.00
2018-04-13T03:53:08.681Z,0.00
2018-04-13T03:54:08.716Z,0.00
2018-04-13T03:55:08.752Z,0.00
2018-04-13T03:56:08.787Z,0.00
2018-04-13T03:57:08.824Z,0.00
2018-04-13T03:58:08.861Z,0.00
2018-04-13T03:59:08.898Z,0.00
2018-04-13T04:00:08.935Z,4.00
2018-04-13T04:01:08.970Z,4.00
2018-04-13T04:02:09.064Z,4.00
2018-04-13T04:03:09.042Z,0.00
2018-04-13T04:04:09.079Z,4.00
2018-04-13T04:05:09.117Z,4.00
2018-04-13T04:06:09.153Z,4.00
2018-04-13T04:07:09.188Z,8.00
2018-04-13T04:08:09.224Z,4.00
2018-04-13T04:09:09.262Z,8.00
2018-04-13T04:10:09.297Z,12.00
2018-04-13T04:11:09.334Z,12.00
2018-04-13T04:12:09.370Z,12.00
2018-04-13T04:13:09.405Z,12.00
2018-04-13T04:14:09.443Z,12.00
2018-04-13T04:15:09.480Z,16.00
2018-04-13T04:16:09.517Z,16.00
2018-04-13T04:17:09.551Z,16.00
2018-04-13T04:18:09.587Z,16.00
2018-04-13T04:19:09.623Z,16.00
2018-04-13T04:20:09.658Z,16.00
2018-04-13T04:21:09.695Z,20.00
2018-04-13T04:22:09.731Z,20.00
2018-04-13T04:23:09.768Z,20.00
2018-04-13T04:24:09.820Z,24.00
2018-04-13T04:25:09.839Z,24.00
2018-04-13T04:26:09.874Z,24.00
2018-04-13T04:27:09.919Z,28.00
2018-04-13T04:28:09.947Z,28.00
2018-04-13T04:29:09.988Z,28.00
2018-04-13T04:30:10.031Z,36.00
2018-04-13T04:31:10.057Z,36.00
2018-04-13T04:32:10.093Z,40.00
2018-04-13T04:33:10.136Z,40.00
2018-04-13T04:34:10.165Z,40.00
2018-04-13T04:35:10.206Z,44.00
2018-04-13T04:36:10.250Z,52.00
2018-04-13T04:37:10.275Z,60.00
2018-04-13T04:38:10.310Z,68.00
2018-04-13T04:39:10.355Z,76.00
2018-04-13T04:40:10.383Z,88.00
2018-04-13T04:41:10.420Z,92.00
2018-04-13T04:42:10.457Z,92.00
2018-04-13T04:43:10.495Z,100.00
2018-04-13T04:44:10.529Z,100.00
2018-04-13T04:45:10.564Z,100.00
2018-04-13T04:46:10.603Z,100.00
2018-04-13T04:47:10.640Z,108.00
2018-04-13T04:48:10.680Z,112.00
2018-04-13T04:49:10.712Z,128.00
2018-04-13T04:50:10.748Z,140.00
2018-04-13T04:51:10.786Z,156.00
2018-04-13T04:52:10.823Z,172.00
2018-04-13T04:53:10.860Z,184.00
2018-04-13T04:54:10.896Z,200.00
2018-04-13T04:55:10.932Z,212.00
2018-04-13T04:56:10.969Z,216.00
2018-04-13T04:57:11.006Z,224.00
2018-04-13T04:58:11.041Z,232.00
2018-04-13T04:59:11.079Z,236.00
2018-04-13T05:00:11.114Z,240.00
2018-04-13T05:01:11.149Z,244.00
2018-04-13T05:02:11.187Z,256.00
2018-04-13T05:03:11.433Z,268.00
2018-04-13T05:04:11.266Z,284.00
2018-04-13T05:05:11.296Z,300.00
2018-04-13T05:06:11.340Z,316.00
2018-04-13T05:07:11.369Z,328.00
2018-04-13T05:08:11.405Z,340.00
2018-04-13T05:09:11.446Z,352.00
2018-04-13T05:10:11.479Z,368.00
2018-04-13T05:11:11.516Z,400.00
2018-04-13T05:12:11.551Z,440.00
2018-04-13T05:13:11.591Z,488.00
2018-04-13T05:14:11.629Z,548.00
2018-04-13T05:15:11.662Z,608.00
2018-04-13T05:16:11.698Z,660.00
2018-04-13T05:17:11.746Z,704.00
2018-04-13T05:18:11.771Z,732.00
2018-04-13T05:19:11.809Z,772.00
2018-04-13T05:20:11.846Z,824.00
2018-04-13T05:21:11.883Z,892.00
2018-04-13T05:22:11.919Z,976.00
2018-04-13T05:23:11.954Z,1072.00
2018-04-13T05:24:11.989Z,1164.00
2018-04-13T05:25:12.028Z,1248.00
2018-04-13T05:26:12.064Z,1320.00
2018-04-13T05:27:12.103Z,1384.00
2018-04-13T05:28:12.137Z,1448.00
2018-04-13T05:29:12.176Z,1508.00
2018-04-13T05:30:12.216Z,1564.00
2018-04-13T05:31:12.249Z,1620.00
2018-04-13T05:32:12.334Z,1680.00
2018-04-13T05:33:12.321Z,1736.00
2018-04-13T05:34:12.357Z,1800.00
2018-04-13T05:35:12.427Z,1872.00
2018-04-13T05:36:12.435Z,1936.00
2018-04-13T05:37:12.471Z,1988.00
2018-04-13T05:38:12.505Z,2012.00
2018-04-13T05:39:12.543Z,1992.00
2018-04-13T05:40:12.579Z,1952.00
2018-04-13T05:41:12.615Z,1888.00
2018-04-13T05:42:12.653Z,1808.00
2018-04-13T05:43:12.689Z,1732.00
2018-04-13T05:44:12.725Z,1652.00
2018-04-13T05:45:12.761Z,1584.00
2018-04-13T05:46:12.802Z,1536.00
2018-04-13T05:47:12.835Z,1492.00
2018-04-13T05:48:12.873Z,1444.00
2018-04-13T05:49:12.916Z,1392.00
2018-04-13T05:50:12.946Z,1332.00
2018-04-13T05:51:12.984Z,1260.00
2018-04-13T05:52:13.021Z,1176.00
2018-04-13T05:53:13.061Z,1104.00
2018-04-13T05:54:13.095Z,1048.00
2018-04-13T05:55:13.133Z,984.00
2018-04-13T05:56:13.171Z,932.00
2018-04-13T05:57:13.206Z,896.00
2018-04-13T05:58:13.244Z,876.00
2018-04-13T05:59:13.281Z,860.00
2018-04-13T06:00:13.331Z,856.00
2018-04-13T06:01:13.354Z,836.00
2018-04-13T06:02:13.399Z,804.00
2018-04-13T06:03:13.436Z,760.00
2018-04-13T06:04:13.464Z,716.00
2018-04-13T06:05:13.503Z,676.00
2018-04-13T06:06:13.541Z,640.00
2018-04-13T06:07:13.576Z,600.00
2018-04-13T06:08:13.613Z,568.00
2018-04-13T06:09:13.659Z,544.00
2018-04-13T06:10:13.688Z,524.00
2018-04-13T06:11:13.726Z,504.00
2018-04-13T06:12:13.762Z,488.00
2018-04-13T06:13:13.799Z,476.00
2018-04-13T06:14:13.836Z,468.00
2018-04-13T06:15:13.873Z,468.00
2018-04-13T06:16:13.915Z,476.00
2018-04-13T06:17:13.957Z,496.00
2018-04-13T06:18:13.986Z,524.00
2018-04-13T06:19:14.021Z,564.00
2018-04-13T06:20:14.060Z,624.00
2018-04-13T06:21:14.097Z,688.00
2018-04-13T06:22:14.134Z,764.00
2018-04-13T06:23:14.176Z,836.00
2018-04-13T06:24:14.255Z,904.00
2018-04-13T06:25:14.245Z,972.00
2018-04-13T06:26:14.284Z,1032.00
2018-04-13T06:27:14.321Z,1080.00
2018-04-13T06:28:14.366Z,1120.00
2018-04-13T06:29:14.393Z,1160.00
2018-04-13T06:30:14.471Z,1192.00
2018-04-13T06:31:14.467Z,1236.00
2018-04-13T06:32:14.511Z,1300.00
2018-04-13T06:33:14.540Z,1376.00
2018-04-13T06:34:14.578Z,1452.00
2018-04-13T06:35:14.616Z,1528.00
2018-04-13T06:36:14.651Z,1596.00
2018-04-13T06:37:14.701Z,1668.00
2018-04-13T06:38:14.726Z,1740.00
2018-04-13T06:39:14.763Z,1816.00
2018-04-13T06:40:14.798Z,1884.00
2018-04-13T06:41:14.835Z,1936.00
2018-04-13T06:42:14.880Z,1960.00
2018-04-13T06:43:14.911Z,1972.00
2018-04-13T06:44:14.949Z,2008.00
2018-04-13T06:45:14.984Z,2044.00
2018-04-13T06:46:15.020Z,2068.00
2018-04-13T06:47:15.065Z,2028.00
2018-04-13T06:48:15.094Z,1972.00
2018-04-13T06:49:15.131Z,1940.00
2018-04-13T06:50:15.169Z,1920.00
2018-04-13T06:51:15.209Z,1976.00
2018-04-13T06:52:15.243Z,2140.00
2018-04-13T06:53:15.279Z,2400.00
2018-04-13T06:54:15.316Z,2664.00
2018-04-13T06:55:15.354Z,2908.00
2018-04-13T06:56:15.392Z,3196.00
2018-04-13T06:57:15.431Z,3560.00
2018-04-13T06:58:15.472Z,3936.00
2018-04-13T06:59:15.502Z,4220.00
2018-04-13T07:00:15.542Z,4344.00
2018-04-13T07:01:15.626Z,4324.00
2018-04-13T07:02:15.615Z,4224.00
2018-04-13T07:03:15.650Z,4176.00
2018-04-13T07:04:15.684Z,4168.00
2018-04-13T07:05:15.723Z,4276.00
2018-04-13T07:06:15.759Z,4368.00
2018-04-13T07:07:15.795Z,4392.00
2018-04-13T07:08:15.834Z,4284.00
2018-04-13T07:09:15.866Z,3960.00
2018-04-13T07:10:15.904Z,3512.00
2018-04-13T07:11:15.947Z,3092.00
2018-04-13T07:12:16.027Z,2760.00
2018-04-13T07:13:16.014Z,2536.00
2018-04-13T07:14:16.051Z,2408.00
2018-04-13T07:15:16.088Z,2320.00
2018-04-13T07:16:16.125Z,2256.00
2018-04-13T07:17:16.162Z,2208.00
2018-04-13T07:18:16.198Z,2188.00
2018-04-13T07:19:16.271Z,2200.00
2018-04-13T07:20:16.273Z,2216.00
2018-04-13T07:21:16.317Z,2232.00
2018-04-13T07:22:16.351Z,2236.00
2018-04-13T07:23:16.383Z,2252.00
2018-04-13T07:24:16.421Z,2280.00
2018-04-13T07:25:16.466Z,2304.00
2018-04-13T07:26:16.498Z,2300.00
2018-04-13T07:27:16.535Z,2280.00
2018-04-13T07:28:16.574Z,2248.00
2018-04-13T07:29:16.604Z,2216.00
2018-04-13T07:30:16.642Z,2160.00
2018-04-13T07:31:16.679Z,2088.00
2018-04-13T07:32:16.719Z,1980.00
2018-04-13T07:33:16.753Z,1864.00
2018-04-13T07:34:16.791Z,1760.00
2018-04-13T07:35:16.832Z,1712.00
2018-04-13T07:36:17.580Z,1724.00
2018-04-13T07:37:16.900Z,1768.00
2018-04-13T07:38:16.939Z,1840.00
2018-04-13T07:39:16.992Z,1960.00
2018-04-13T07:40:17.012Z,2056.00
2018-04-13T07:41:17.051Z,2100.00
2018-04-13T07:42:17.088Z,2100.00
2018-04-13T07:43:17.271Z,2120.00
2018-04-13T07:44:17.159Z,2176.00
2018-04-13T07:45:17.197Z,2268.00
2018-04-13T07:46:17.233Z,2368.00
2018-04-13T07:47:17.348Z,2460.00
2018-04-13T07:48:18.019Z,2520.00
2018-04-13T07:49:17.348Z,2572.00
2018-04-13T07:50:17.390Z,2644.00
2018-04-13T07:51:17.420Z,2728.00
2018-04-13T07:52:17.455Z,2836.00
2018-04-13T07:53:17.492Z,2996.00
2018-04-13T07:54:17.531Z,3324.00
2018-04-13T07:55:17.567Z,3880.00
2018-04-13T07:56:17.606Z,4628.00
2018-04-13T07:57:17.641Z,5488.00
2018-04-13T07:58:17.678Z,6152.00
2018-04-13T07:59:17.716Z,6148.00
2018-04-13T08:00:18.119Z,5416.00
2018-04-13T08:01:17.791Z,4488.00
2018-04-13T08:02:17.826Z,3712.00
2018-04-13T08:03:17.866Z,3164.00
2018-04-13T08:04:17.901Z,2820.00
2018-04-13T08:05:17.939Z,2576.00
2018-04-13T08:06:17.978Z,2476.00
2018-04-13T08:07:18.015Z,2396.00
2018-04-13T08:08:18.050Z,2336.00
2018-04-13T08:09:18.089Z,2244.00
2018-04-13T08:10:18.127Z,2196.00
2018-04-13T08:11:18.163Z,2212.00
2018-04-13T08:12:18.210Z,2276.00
2018-04-13T08:13:18.236Z,2388.00
2018-04-13T08:14:18.273Z,2528.00
2018-04-13T08:15:18.313Z,2724.00
2018-04-13T08:16:18.346Z,3028.00
2018-04-13T08:17:18.389Z,3444.00
2018-04-13T08:18:18.422Z,3980.00
2018-04-13T08:19:18.459Z,4652.00
2018-04-13T08:20:18.496Z,5360.00
2018-04-13T08:21:18.535Z,5724.00
2018-04-13T08:22:18.571Z,5692.00
2018-04-13T08:23:18.643Z,5364.00
2018-04-13T08:24:18.646Z,4948.00
2018-04-13T08:25:18.682Z,4560.00
2018-04-13T08:26:18.720Z,4260.00
2018-04-13T08:27:18.757Z,4052.00
2018-04-13T08:28:18.794Z,3916.00
2018-04-13T08:29:18.835Z,3756.00
2018-04-13T08:30:18.899Z,3604.00
2018-04-13T08:31:18.938Z,3528.00
2018-04-13T08:32:18.943Z,3584.00
2018-04-13T08:33:18.980Z,3704.00
2018-04-13T08:34:19.029Z,3956.00
2018-04-13T08:35:19.055Z,4340.00
2018-04-13T08:36:19.098Z,4704.00
2018-04-13T08:37:19.140Z,4928.00
2018-04-13T08:38:19.169Z,4980.00
2018-04-13T08:39:19.205Z,4856.00
2018-04-13T08:40:19.241Z,4612.00
2018-04-13T08:41:19.279Z,4380.00
2018-04-13T08:42:19.316Z,4268.00
2018-04-13T08:43:19.463Z,4240.00
2018-04-13T08:44:19.408Z,4244.00
2018-04-13T08:45:19.428Z,4240.00
2018-04-13T08:46:19.471Z,4200.00
2018-04-13T08:47:19.508Z,4152.00
2018-04-13T08:48:19.539Z,4132.00
2018-04-13T08:49:19.577Z,4088.00
2018-04-13T08:50:19.619Z,4024.00
2018-04-13T08:51:19.652Z,3908.00
2018-04-13T08:52:19.698Z,3876.00
2018-04-13T08:53:19.732Z,4036.00
2018-04-13T08:54:19.762Z,4364.00
2018-04-13T08:55:19.799Z,4836.00
2018-04-13T08:56:19.844Z,5368.00
2018-04-13T08:57:19.877Z,5604.00
2018-04-13T08:58:19.913Z,5756.00
2018-04-13T08:59:19.947Z,5904.00
2018-04-13T09:00:19.984Z,6084.00
2018-04-13T09:01:20.021Z,6272.00
2018-04-13T09:02:20.069Z,6396.00
2018-04-13T09:03:20.097Z,6544.00
2018-04-13T09:04:20.132Z,6676.00
2018-04-13T09:05:20.168Z,7004.00
2018-04-13T09:06:20.235Z,7608.00
2018-04-13T09:07:20.273Z,8364.00
2018-04-13T09:08:20.303Z,8960.00
2018-04-13T09:09:20.317Z,9168.00
2018-04-13T09:10:20.355Z,9004.00
2018-04-13T09:11:20.391Z,8408.00
2018-04-13T09:12:20.437Z,7420.00
2018-04-13T09:13:20.467Z,6268.00
2018-04-13T09:14:20.502Z,5284.00
2018-04-13T09:15:20.539Z,4704.00
2018-04-13T09:16:20.575Z,4560.00
2018-04-13T09:17:20.613Z,4800.00
2018-04-13T09:18:20.650Z,5068.00
2018-04-13T09:19:20.698Z,5124.00
2018-04-13T09:20:20.721Z,5112.00
2018-04-13T09:21:20.764Z,5272.00
2018-04-13T09:22:20.797Z,5532.00
2018-04-13T09:23:20.833Z,5960.00
2018-04-13T09:24:20.869Z,6304.00
2018-04-13T09:25:20.918Z,6408.00
2018-04-13T09:26:20.943Z,6304.00
2018-04-13T09:27:20.981Z,6184.00
2018-04-13T09:28:21.018Z,6152.00
2018-04-13T09:29:21.054Z,6220.00
2018-04-13T09:30:21.091Z,6148.00
2018-04-13T09:31:21.130Z,5892.00
2018-04-13T09:32:21.165Z,5604.00
2018-04-13T09:33:21.201Z,5332.00
2018-04-13T09:34:21.243Z,5188.00
2018-04-13T09:35:21.275Z,5160.00
2018-04-13T09:36:21.312Z,5328.00
2018-04-13T09:37:21.350Z,5768.00
2018-04-13T09:38:21.386Z,6176.00
2018-04-13T09:39:21.432Z,6512.00
2018-04-13T09:40:21.458Z,6880.00
2018-04-13T09:41:21.497Z,7144.00
2018-04-13T09:42:21.544Z,7100.00
2018-04-13T09:43:21.580Z,6984.00
2018-04-13T09:44:21.627Z,6784.00
2018-04-13T09:45:21.655Z,6792.00
2018-04-13T09:46:21.683Z,6960.00
2018-04-13T09:47:21.718Z,6852.00
2018-04-13T09:48:21.754Z,6716.00
2018-04-13T09:49:21.796Z,6492.00
2018-04-13T09:50:21.830Z,6180.00
2018-04-13T09:51:21.866Z,5940.00
2018-04-13T09:52:21.901Z,5716.00
2018-04-13T09:53:21.939Z,5776.00
2018-04-13T09:54:21.980Z,6116.00
2018-04-13T09:55:22.017Z,6448.00
2018-04-13T09:56:22.055Z,6784.00
2018-04-13T09:57:22.088Z,7064.00
2018-04-13T09:58:22.124Z,7544.00
2018-04-13T09:59:22.161Z,8308.00
2018-04-13T10:00:22.198Z,9352.00
2018-04-13T10:01:22.238Z,10244.00
2018-04-13T10:02:22.280Z,10692.00
2018-04-13T10:03:22.310Z,10572.00
2018-04-13T10:04:22.345Z,10424.00
2018-04-13T10:05:22.382Z,10572.00
2018-04-13T10:06:22.418Z,11232.00
2018-04-13T10:07:22.460Z,11872.00
2018-04-13T10:08:22.495Z,12316.00
2018-04-13T10:09:22.531Z,12728.00
2018-04-13T10:10:22.578Z,12744.00
2018-04-13T10:11:22.604Z,13224.00
2018-04-13T10:12:22.641Z,13144.00
2018-04-13T10:13:22.687Z,13980.00
2018-04-13T10:14:22.715Z,13296.00
2018-04-13T10:15:22.753Z,13744.00
2018-04-13T10:16:22.788Z,15960.00
2018-04-13T10:17:22.834Z,16800.00
2018-04-13T10:18:22.874Z,15452.00
2018-04-13T10:19:22.902Z,13748.00
2018-04-13T10:20:22.939Z,15712.00
2018-04-13T10:21:22.976Z,18304.00
2018-04-13T10:22:23.022Z,17184.00
2018-04-13T10:23:23.050Z,17760.00
2018-04-13T10:24:23.087Z,18336.00
2018-04-13T10:25:23.131Z,17312.00
2018-04-13T10:26:23.164Z,18144.00
2018-04-13T10:27:23.200Z,15292.00
2018-04-13T10:28:23.239Z,13896.00
2018-04-13T10:29:23.276Z,12016.00
2018-04-13T10:30:23.316Z,11364.00
2018-04-13T10:31:23.351Z,11368.00
2018-04-13T10:32:23.390Z,13088.00
2018-04-13T10:33:23.427Z,12684.00
2018-04-13T10:34:23.467Z,12992.00
2018-04-13T10:35:23.514Z,12040.00
2018-04-13T10:36:23.541Z,12696.00
2018-04-13T10:37:23.581Z,13108.00
2018-04-13T10:38:23.619Z,12432.00
2018-04-13T10:39:23.654Z,12264.00
2018-04-13T10:40:23.692Z,13260.00
2018-04-13T10:41:23.730Z,11632.00
2018-04-13T10:42:23.776Z,13180.00
2018-04-13T10:43:23.807Z,12320.00
2018-04-13T10:44:23.846Z,12840.00
2018-04-13T10:45:23.882Z,12948.00
2018-04-13T10:46:23.920Z,10988.00
2018-04-13T10:47:23.959Z,10504.00
2018-04-13T10:48:23.997Z,9636.00
2018-04-13T10:49:24.078Z,8836.00
2018-04-13T10:50:24.073Z,6668.00
2018-04-13T10:51:24.112Z,6064.00
2018-04-13T10:52:24.147Z,6160.00
2018-04-13T10:53:24.189Z,5516.00
2018-04-13T10:54:24.225Z,5288.00
2018-04-13T10:55:24.260Z,4976.00
2018-04-13T10:56:24.300Z,4488.00
2018-04-13T10:57:24.343Z,5320.00
2018-04-13T10:58:24.382Z,5708.00
2018-04-13T10:59:24.417Z,4984.00
2018-04-13T11:00:24.450Z,4492.00
2018-04-13T11:01:24.485Z,5388.00
2018-04-13T11:02:24.524Z,5068.00
2018-04-13T11:03:24.569Z,4988.00
2018-04-13T11:04:24.599Z,4940.00
2018-04-13T11:05:24.636Z,4600.00
2018-04-13T11:06:24.676Z,4116.00
2018-04-13T11:07:24.713Z,4336.00
2018-04-13T11:08:24.749Z,4232.00
2018-04-13T11:09:24.791Z,4252.00
2018-04-13T11:10:24.823Z,4340.00
2018-04-13T11:11:24.861Z,4524.00
2018-04-13T11:12:24.896Z,4468.00
2018-04-13T11:13:24.936Z,3916.00
2018-04-13T11:14:24.973Z,4048.00
2018-04-13T11:15:25.011Z,4420.00
2018-04-13T11:16:25.050Z,4228.00
2018-04-13T11:17:25.141Z,4072.00
2018-04-13T11:18:25.131Z,3860.00
2018-04-13T11:19:25.160Z,3608.00
2018-04-13T11:20:25.205Z,3868.00
2018-04-13T11:21:25.236Z,2860.00
2018-04-13T11:22:25.271Z,2532.00
2018-04-13T11:23:25.310Z,2384.00
2018-04-13T11:24:25.345Z,2612.00
2018-04-13T11:25:25.386Z,2464.00
2018-04-13T11:26:25.428Z,2384.00
2018-04-13T11:27:25.457Z,2628.00
2018-04-13T11:28:25.494Z,2556.00
2018-04-13T11:29:25.536Z,2132.00
2018-04-13T11:30:25.630Z,2000.00
2018-04-13T11:31:25.606Z,1860.00
2018-04-13T11:32:25.650Z,1776.00
2018-04-13T11:33:25.682Z,1824.00
2018-04-13T11:34:25.726Z,1764.00
2018-04-13T11:35:25.755Z,1576.00
2018-04-13T11:36:25.792Z,1488.00
2018-04-13T11:37:25.830Z,1400.00
2018-04-13T11:38:25.879Z,1292.00
2018-04-13T11:39:25.905Z,1348.00
2018-04-13T11:40:25.940Z,1340.00
2018-04-13T11:41:25.979Z,1180.00
2018-04-13T11:42:26.015Z,1224.00
2018-04-13T11:43:26.056Z,1108.00
2018-04-13T11:44:26.112Z,1292.00
2018-04-13T11:45:26.128Z,1264.00
2018-04-13T11:46:26.174Z,1428.00
2018-04-13T11:47:26.200Z,1348.00
2018-04-13T11:48:26.237Z,1412.00
2018-04-13T11:49:26.277Z,1408.00
2018-04-13T11:50:26.313Z,1308.00
2018-04-13T11:51:26.348Z,1264.00
2018-04-13T11:52:26.387Z,1120.00
2018-04-13T11:53:26.424Z,1048.00
2018-04-13T11:54:26.468Z,1048.00
2018-04-13T11:55:26.496Z,1052.00
2018-04-13T11:56:26.535Z,1112.00
2018-04-13T11:57:26.570Z,1168.00
2018-04-13T11:58:26.607Z,1100.00
2018-04-13T11:59:26.647Z,1248.00
2018-04-13T12:00:26.680Z,1344.00
2018-04-13T12:01:26.721Z,1312.00
2018-04-13T12:02:26.786Z,1260.00
2018-04-13T12:03:26.892Z,1260.00
2018-04-13T12:04:26.826Z,1356.00
2018-04-13T12:05:26.865Z,1492.00
2018-04-13T12:06:26.901Z,1616.00
2018-04-13T12:07:26.939Z,2092.00
2018-04-13T12:08:26.977Z,2560.00
2018-04-13T12:09:27.012Z,2896.00
2018-04-13T12:10:27.048Z,2688.00
2018-04-13T12:11:27.090Z,2764.00
2018-04-13T12:12:27.126Z,3648.00
2018-04-13T12:13:27.158Z,3668.00
2018-04-13T12:14:27.196Z,3948.00
2018-04-13T12:15:27.232Z,5052.00
2018-04-13T12:16:27.270Z,5824.00
2018-04-13T12:17:27.306Z,5464.00
2018-04-13T12:18:27.343Z,4536.00
2018-04-13T12:19:27.379Z,5472.00
2018-04-13T12:20:27.417Z,4144.00
2018-04-13T12:21:27.452Z,3844.00
2018-04-13T12:22:27.489Z,3984.00
2018-04-13T12:23:27.527Z,6300.00
2018-04-13T12:24:27.563Z,7284.00
2018-04-13T12:25:27.648Z,6968.00
2018-04-13T12:26:27.838Z,6152.00
2018-04-13T12:27:27.673Z,5460.00
2018-04-13T12:28:27.709Z,4924.00
2018-04-13T12:29:27.746Z,4800.00
2018-04-13T12:30:27.784Z,4520.00
2018-04-13T12:31:27.829Z,4188.00
2018-04-13T12:32:27.856Z,3852.00